GMMNGMMB

Guest
Details From GMMN - Casablanca Mohammed V Intl
To GMMB - BEN SLIMANE
Flight Number -
Tags generated
Created
Modified
Stats Distance 25 nm / 47 km
Max Altitude 0 ft / 0 m
Waypoints 2
Social Downloads 2
Likes 0
Share VATSIM

Download

Looking for another format? Having issues loading an existing format? Contact us
Advertisement - Login to hide

Notes

Basic altitude profile: - Ascent Rate: 2500ft/min - Ascent Speed: 250kts - Cruise Altitude: 35000ft - Cruise Speed: 4kts - Descent Rate: 24ft/min - Descent Speed: 250kts Options: - Use NATs: yes - Use PACOTS: yes - Use low airways: yes - Use high airways: yes

Route

GMMN GMMB

ID Type Via Altitude Latitude Longitude Leg Dist Tot Dist Heading (true) Name
O GMMN APT - 0 ft / 0 m 33.36747˚ -7.58996˚ - 0 nm - Casablanca Mohammed V Intl
O GMMB APT - 0 ft / 0 m 33.65542˚ -7.22145˚ 25 nm 25 nm 47° / 47° BEN SLIMANE

Altitude Profile

Advertisement - Login to hide

GMMN

Details ICAO GMMN (CMN)
Name Casablanca Mohammed V Intl
Region Morocco
Timezone Africa/Casablanca (UTC+0.0)
Stats Elevation 656 ft / 200 m (AMSL)
Location 33.367466° -7.589964°
Runways 2
Magnetic Variation 1.767° W

METAR

GMMN 250330Z 19005KT 9999 BKN016 15/14 Q1015 NOSIG

Decode

TAF

TAF TAF GMMN 242300Z 2500/2606 22006KT 9999 BKN016 BECMG 2511/2514 30015KT BECMG 2519/2521 34005KT 8000 SCT016

Decode

Departure Runways

ID Width Length Bearing (true) Bearing (mag) Surface Threshold Offset Overrun Length
17L 148 ft / 45 m 12,224 ft / 3,726 m 164.03° 165.80° Asphalt 0 ft / 0 m 295 ft / 90 m
17R 148 ft / 45 m 12,196 ft / 3,717 m 164.03° 165.80° Asphalt 0 ft / 0 m 197 ft / 60 m
35L 148 ft / 45 m 12,196 ft / 3,717 m 344.04° 345.81° Asphalt 0 ft / 0 m 180 ft / 55 m
35R 148 ft / 45 m 12,224 ft / 3,726 m 344.04° 345.81° Asphalt 0 ft / 0 m 995 ft / 303 m

GMMB

Details ICAO GMMB
Name BEN SLIMANE
Region Morocco
Timezone Africa/Casablanca (UTC+0.0)
Stats Elevation 627 ft / 191 m (AMSL)
Location 33.655423° -7.221449°
Runways 1
Magnetic Variation 1.649° W

METAR

GMMB 250300Z AUTO 17006KT //// R32/P2000N NCD 14/14 Q1016 NOSIG

Decode

TAF

Not found

Destination Runways

ID Width Length Bearing (true) Bearing (mag) Surface Threshold Offset Overrun Length
14 150 ft / 46 m 10,096 ft / 3,077 m 141.46° 143.11° Asphalt 0 ft / 0 m 249 ft / 76 m
32 150 ft / 46 m 10,096 ft / 3,077 m 321.47° 323.12° Asphalt 0 ft / 0 m 249 ft / 76 m

Popular Alternatives